createdAt,value
2023-05-17T00:01:58.581Z,24.80
2023-05-17T00:04:26.415Z,24.80
2023-05-17T00:06:54.283Z,24.70
2023-05-17T00:09:22.067Z,24.80
2023-05-17T00:11:49.823Z,24.70
2023-05-17T00:14:17.599Z,24.80
2023-05-17T00:16:46.691Z,24.70
2023-05-17T00:19:14.616Z,24.70
2023-05-17T00:21:42.649Z,24.70
2023-05-17T00:24:10.410Z,24.80
2023-05-17T00:26:38.155Z,24.70
2023-05-17T00:29:06.013Z,24.70
2023-05-17T00:31:33.800Z,24.70
2023-05-17T00:34:02.903Z,24.70
2023-05-17T00:36:30.805Z,24.70
2023-05-17T00:38:58.577Z,24.70
2023-05-17T00:41:26.449Z,24.70
2023-05-17T00:43:54.358Z,24.70
2023-05-17T00:46:22.119Z,24.70
2023-05-17T00:48:50.403Z,24.70
2023-05-17T00:51:20.741Z,24.70
2023-05-17T00:53:48.873Z,24.70
2023-05-17T00:56:16.876Z,24.70
2023-05-17T00:58:45.093Z,24.70
2023-05-17T01:01:12.965Z,24.70
2023-05-17T01:03:41.214Z,24.70
2023-05-17T01:06:09.119Z,24.70
2023-05-17T01:08:38.405Z,24.70
2023-05-17T01:11:15.259Z,24.70
2023-05-17T01:13:53.110Z,24.70
2023-05-17T01:16:28.857Z,24.70
2023-05-17T01:19:03.654Z,24.70
2023-05-17T01:21:41.883Z,24.70
2023-05-17T01:24:25.876Z,24.70
2023-05-17T01:26:55.852Z,24.70
2023-05-17T01:29:27.485Z,24.70
2023-05-17T01:31:58.463Z,24.70
2023-05-17T01:34:26.939Z,24.70
2023-05-17T01:36:55.033Z,24.70
2023-05-17T01:39:23.101Z,24.60
2023-05-17T01:42:00.906Z,24.70
2023-05-17T01:44:37.201Z,24.70
2023-05-17T01:47:14.684Z,24.70
2023-05-17T01:49:47.638Z,24.70
2023-05-17T01:52:23.934Z,24.60
2023-05-17T01:54:57.111Z,24.60
2023-05-17T01:57:30.553Z,24.60
2023-05-17T02:00:01.219Z,24.70
2023-05-17T02:02:30.798Z,24.70
2023-05-17T02:04:59.273Z,24.70
2023-05-17T02:07:27.439Z,24.60
2023-05-17T02:09:56.486Z,24.60
2023-05-17T02:12:25.848Z,24.60
2023-05-17T02:14:53.641Z,24.60
2023-05-17T02:17:21.473Z,24.60
2023-05-17T02:19:49.950Z,24.60
2023-05-17T02:22:17.702Z,24.70
2023-05-17T02:24:46.642Z,24.60
2023-05-17T02:27:14.390Z,24.60
2023-05-17T02:29:43.570Z,24.60
2023-05-17T02:32:11.513Z,24.70
2023-05-17T02:34:39.232Z,24.60
2023-05-17T02:37:07.004Z,24.60
2023-05-17T02:39:34.880Z,24.60
2023-05-17T02:42:02.710Z,24.60
2023-05-17T02:44:30.494Z,24.60
2023-05-17T02:46:59.595Z,24.60
2023-05-17T02:49:27.412Z,24.60
2023-05-17T02:51:55.734Z,24.60
2023-05-17T02:54:23.488Z,24.60
2023-05-17T02:56:51.357Z,24.60
2023-05-17T02:59:19.484Z,24.60
2023-05-17T03:01:47.553Z,24.60
2023-05-17T03:04:17.409Z,24.60
2023-05-17T03:06:45.235Z,24.60
2023-05-17T03:09:13.391Z,24.60
2023-05-17T03:11:41.469Z,24.60
2023-05-17T03:14:16.797Z,24.60
2023-05-17T03:16:44.566Z,24.60
2023-05-17T03:19:12.573Z,24.60
2023-05-17T03:21:43.880Z,24.60
2023-05-17T03:24:12.665Z,24.50
2023-05-17T03:26:41.447Z,24.60
2023-05-17T03:29:11.639Z,24.60
2023-05-17T03:31:42.179Z,24.60
2023-05-17T03:34:10.285Z,24.60
2023-05-17T03:36:40.289Z,24.60
2023-05-17T03:39:09.547Z,24.60
2023-05-17T03:41:41.963Z,24.50
2023-05-17T03:44:09.956Z,24.50
2023-05-17T03:46:38.387Z,24.50
2023-05-17T03:49:06.485Z,24.50
2023-05-17T03:51:35.902Z,24.50
2023-05-17T03:54:03.911Z,24.50
2023-05-17T03:56:33.256Z,24.50
2023-05-17T03:59:01.065Z,24.50
2023-05-17T04:01:29.019Z,24.50
2023-05-17T04:03:56.886Z,24.50
2023-05-17T04:06:25.537Z,24.50
2023-05-17T04:08:55.044Z,24.50
2023-05-17T04:11:24.229Z,24.50
2023-05-17T04:13:53.894Z,24.50
2023-05-17T04:16:22.498Z,24.50
2023-05-17T04:18:52.648Z,24.50
2023-05-17T04:21:20.758Z,24.50
2023-05-17T04:23:49.000Z,24.50
2023-05-17T04:26:17.350Z,24.50
2023-05-17T04:28:45.123Z,24.50
2023-05-17T04:31:17.781Z,24.50
2023-05-17T04:33:46.411Z,24.50
2023-05-17T04:36:14.293Z,24.50
2023-05-17T04:38:43.022Z,24.50
2023-05-17T04:41:14.543Z,24.50
2023-05-17T04:43:43.456Z,24.50
2023-05-17T04:46:20.458Z,24.50
2023-05-17T04:48:48.732Z,24.50
2023-05-17T04:51:16.933Z,24.50
2023-05-17T04:53:44.713Z,24.50
2023-05-17T04:56:17.326Z,24.50
2023-05-17T04:58:45.244Z,24.50
2023-05-17T05:01:13.837Z,24.50
2023-05-17T05:03:43.082Z,24.50
2023-05-17T05:06:12.844Z,24.50
2023-05-17T05:08:40.966Z,24.50
2023-05-17T05:11:11.069Z,24.50
2023-05-17T05:13:39.186Z,24.50
2023-05-17T05:16:08.530Z,24.50
2023-05-17T05:18:38.100Z,24.50
2023-05-17T05:21:07.482Z,24.60
2023-05-17T05:23:35.940Z,24.50
2023-05-17T05:26:03.932Z,24.60
2023-05-17T05:28:31.790Z,24.60
2023-05-17T05:31:01.432Z,24.60
2023-05-17T05:33:36.349Z,24.60
2023-05-17T05:36:05.118Z,24.60
2023-05-17T05:38:34.294Z,24.60
2023-05-17T05:41:02.231Z,24.60
2023-05-17T05:43:30.654Z,24.60
2023-05-17T05:45:58.571Z,24.60
2023-05-17T05:48:26.481Z,24.60
2023-05-17T05:50:54.294Z,24.60
2023-05-17T05:53:22.607Z,24.60
2023-05-17T05:55:54.657Z,24.60
2023-05-17T05:58:22.616Z,24.60
2023-05-17T06:00:52.056Z,24.60
2023-05-17T06:03:19.809Z,24.60
2023-05-17T06:05:47.631Z,24.60
2023-05-17T06:08:15.717Z,24.60
2023-05-17T06:10:43.483Z,24.60
2023-05-17T06:13:12.673Z,24.60
2023-05-17T06:15:42.150Z,24.60
2023-05-17T06:18:09.991Z,24.60
2023-05-17T06:20:37.881Z,24.60
2023-05-17T06:23:08.092Z,24.60
2023-05-17T06:25:35.889Z,24.60
2023-05-17T06:28:04.757Z,24.60
2023-05-17T06:30:33.905Z,24.60
2023-05-17T06:33:01.785Z,24.60
2023-05-17T06:35:35.339Z,24.60
2023-05-17T06:38:11.777Z,24.60
2023-05-17T06:40:39.563Z,24.60
2023-05-17T06:43:07.322Z,24.60
2023-05-17T06:45:36.765Z,24.60
2023-05-17T06:48:04.769Z,24.60
2023-05-17T06:50:32.847Z,24.60
2023-05-17T06:53:00.675Z,24.60
2023-05-17T06:55:30.233Z,24.60
2023-05-17T06:58:00.044Z,24.60
2023-05-17T07:00:28.343Z,24.60
2023-05-17T07:02:57.899Z,24.60
2023-05-17T07:05:25.845Z,24.60
2023-05-17T07:07:53.690Z,24.60
2023-05-17T07:10:21.609Z,24.60
2023-05-17T07:12:49.383Z,24.60
2023-05-17T07:15:18.387Z,24.60
2023-05-17T07:17:46.158Z,24.60
2023-05-17T07:20:15.574Z,24.70
2023-05-17T07:22:43.380Z,24.60
2023-05-17T07:25:11.489Z,24.60
2023-05-17T07:27:39.256Z,24.60
2023-05-17T07:30:08.399Z,24.60
2023-05-17T07:32:36.253Z,24.70
2023-05-17T07:35:04.064Z,24.70
2023-05-17T07:37:33.156Z,24.70
2023-05-17T07:40:01.173Z,24.70
2023-05-17T07:42:28.961Z,24.70
2023-05-17T07:44:56.678Z,24.70
2023-05-17T07:47:24.477Z,24.70
2023-05-17T07:49:52.244Z,24.70
2023-05-17T07:52:19.998Z,24.70
2023-05-17T07:54:49.052Z,24.70
2023-05-17T07:57:16.771Z,24.70
2023-05-17T07:59:44.493Z,24.70
2023-05-17T08:02:12.272Z,24.70
2023-05-17T08:04:41.770Z,24.70
2023-05-17T08:07:09.539Z,24.70
2023-05-17T08:09:37.373Z,24.70
2023-05-17T08:12:07.403Z,24.70
2023-05-17T08:14:35.127Z,24.70
2023-05-17T08:17:02.889Z,24.70
2023-05-17T08:19:30.867Z,24.70
2023-05-17T08:21:59.226Z,24.70
2023-05-17T08:24:27.259Z,24.70
2023-05-17T08:26:54.975Z,24.80
2023-05-17T08:29:24.034Z,24.80
2023-05-17T08:31:52.467Z,24.70
2023-05-17T08:34:20.202Z,24.70
2023-05-17T08:36:48.001Z,24.70
2023-05-17T08:39:16.176Z,24.70
2023-05-17T08:41:43.937Z,24.70
2023-05-17T08:44:13.904Z,24.70
2023-05-17T08:46:44.920Z,24.80
2023-05-17T08:49:15.858Z,24.80
2023-05-17T08:51:44.633Z,24.80
2023-05-17T08:54:12.638Z,24.80
2023-05-17T08:56:43.401Z,24.80
2023-05-17T08:59:11.608Z,24.80
2023-05-17T09:01:41.780Z,24.80
2023-05-17T09:04:11.681Z,24.80
2023-05-17T09:06:39.732Z,24.80
2023-05-17T09:09:08.470Z,24.80
2023-05-17T09:11:37.295Z,24.80
2023-05-17T09:14:06.093Z,24.80
2023-05-17T09:16:36.122Z,24.80
2023-05-17T09:19:05.367Z,24.90
2023-05-17T09:21:35.024Z,24.80
2023-05-17T09:24:07.078Z,24.80
2023-05-17T09:26:40.356Z,24.80
2023-05-17T09:29:12.148Z,24.80
2023-05-17T09:31:40.498Z,24.90
2023-05-17T09:34:09.035Z,24.80
2023-05-17T09:36:39.504Z,24.90
2023-05-17T09:39:12.001Z,24.90
2023-05-17T09:41:43.213Z,24.90
2023-05-17T09:44:13.344Z,24.90
2023-05-17T09:46:43.555Z,24.90
2023-05-17T09:49:11.317Z,24.90
2023-05-17T09:51:42.606Z,24.90
2023-05-17T09:54:10.952Z,24.90
2023-05-17T09:56:39.147Z,24.90
2023-05-17T09:59:13.344Z,24.90
2023-05-17T10:01:42.574Z,24.90
2023-05-17T10:04:11.298Z,24.90
2023-05-17T10:09:15.485Z,25.00
2023-05-17T10:11:46.908Z,25.00
2023-05-17T10:14:22.408Z,25.00
2023-05-17T10:16:50.969Z,25.00
2023-05-17T10:19:20.976Z,25.00
2023-05-17T10:21:53.261Z,25.00
2023-05-17T10:24:21.853Z,25.00
2023-05-17T10:26:51.898Z,25.00
2023-05-17T10:29:20.724Z,25.00
2023-05-17T10:31:50.153Z,25.00
2023-05-17T10:34:19.665Z,25.00
2023-05-17T10:36:50.590Z,25.00
2023-05-17T10:39:18.800Z,25.00
2023-05-17T10:41:48.757Z,25.00
2023-05-17T10:44:18.500Z,25.00
2023-05-17T10:46:53.003Z,25.00
2023-05-17T10:49:24.470Z,25.00
2023-05-17T10:51:54.120Z,25.00
2023-05-17T10:54:22.207Z,25.00
2023-05-17T10:56:51.746Z,25.00
2023-05-17T10:59:24.346Z,25.00
2023-05-17T11:01:58.973Z,24.90
2023-05-17T11:04:29.338Z,24.90
2023-05-17T11:07:32.028Z,24.90
2023-05-17T11:10:14.194Z,24.90
2023-05-17T11:12:44.065Z,24.90
2023-05-17T11:15:13.593Z,24.90
2023-05-17T11:17:53.845Z,24.90
2023-05-17T11:20:32.887Z,24.90
2023-05-17T11:23:04.650Z,24.90
2023-05-17T11:25:35.625Z,24.90
2023-05-17T11:28:08.674Z,25.00
2023-05-17T11:30:42.427Z,24.90
2023-05-17T11:33:17.187Z,25.00
2023-05-17T11:35:55.812Z,24.90
2023-05-17T11:38:30.299Z,25.00
2023-05-17T11:40:58.532Z,25.00
2023-05-17T11:43:30.772Z,25.00
2023-05-17T11:46:01.397Z,25.00
2023-05-17T11:48:31.502Z,25.00
2023-05-17T11:51:01.513Z,25.00
2023-05-17T11:53:32.504Z,24.90
2023-05-17T11:56:03.958Z,25.00
2023-05-17T11:58:33.144Z,25.00
2023-05-17T12:01:00.893Z,25.00
2023-05-17T12:03:30.662Z,25.00
2023-05-17T12:06:06.757Z,25.00
2023-05-17T12:08:37.368Z,25.00
2023-05-17T12:11:05.956Z,25.00
2023-05-17T12:13:35.830Z,25.00
2023-05-17T12:16:08.560Z,25.00
2023-05-17T12:18:37.995Z,25.00
2023-05-17T12:21:06.835Z,25.00
2023-05-17T12:23:38.141Z,25.00
2023-05-17T12:26:10.545Z,25.00
2023-05-17T12:28:39.226Z,25.00
2023-05-17T12:31:10.762Z,25.00
2023-05-17T12:33:42.058Z,25.00
2023-05-17T12:36:11.256Z,25.00
2023-05-17T12:38:42.145Z,25.00
2023-05-17T12:41:12.225Z,25.00
2023-05-17T12:43:41.282Z,25.00
2023-05-17T12:46:11.475Z,25.00
2023-05-17T12:48:41.331Z,25.00
2023-05-17T12:51:11.993Z,25.00
2023-05-17T12:53:43.168Z,25.00
2023-05-17T12:56:16.709Z,25.10
2023-05-17T12:58:44.818Z,25.10
2023-05-17T13:01:14.429Z,25.10
2023-05-17T13:03:42.705Z,25.10
2023-05-17T13:06:11.130Z,25.10
2023-05-17T13:08:38.912Z,25.10
2023-05-17T13:11:12.672Z,25.10
2023-05-17T13:13:41.137Z,25.10
2023-05-17T13:16:09.329Z,25.10
2023-05-17T13:18:51.110Z,25.10
2023-05-17T13:21:20.561Z,25.10
2023-05-17T13:23:50.853Z,25.10
2023-05-17T13:26:21.400Z,25.10
2023-05-17T13:28:49.384Z,25.10
2023-05-17T13:31:17.140Z,25.10
2023-05-17T13:33:45.156Z,25.10
2023-05-17T13:36:13.235Z,25.10
2023-05-17T13:38:40.977Z,25.10
2023-05-17T13:41:09.358Z,25.10
2023-05-17T13:43:38.485Z,25.10
2023-05-17T13:46:06.272Z,25.10
2023-05-17T13:48:34.147Z,25.10
2023-05-17T13:51:02.119Z,25.10
2023-05-17T13:53:30.007Z,25.10
2023-05-17T13:55:57.728Z,25.10
2023-05-17T13:58:25.538Z,25.10
2023-05-17T14:00:54.700Z,25.10
2023-05-17T14:03:22.649Z,25.10
2023-05-17T14:05:52.622Z,25.10
2023-05-17T14:08:21.023Z,25.10
2023-05-17T14:10:49.208Z,25.20
2023-05-17T14:13:17.017Z,25.20
2023-05-17T14:15:44.846Z,25.20
2023-05-17T14:18:14.008Z,25.20
2023-05-17T14:20:41.817Z,25.20
2023-05-17T14:23:09.666Z,25.20
2023-05-17T14:25:37.532Z,25.20
2023-05-17T14:28:05.518Z,25.30
2023-05-17T14:30:34.530Z,25.30
2023-05-17T14:33:02.391Z,25.30
2023-05-17T14:35:31.578Z,25.30
2023-05-17T14:37:59.370Z,25.40
2023-05-17T14:40:27.320Z,25.40
2023-05-17T14:42:55.930Z,25.40
2023-05-17T14:45:23.702Z,25.50
2023-05-17T14:47:51.729Z,25.50
2023-05-17T14:50:19.606Z,25.50
2023-05-17T14:52:48.649Z,25.50
2023-05-17T14:55:17.573Z,25.50
2023-05-17T14:57:45.821Z,25.50
2023-05-17T15:00:14.444Z,25.60
2023-05-17T15:02:42.212Z,25.60
2023-05-17T15:05:10.885Z,25.60
2023-05-17T15:07:38.805Z,25.70
2023-05-17T15:10:09.778Z,25.70
2023-05-17T15:12:37.619Z,25.70
2023-05-17T15:15:06.460Z,25.70
2023-05-17T15:17:34.205Z,25.70
2023-05-17T15:20:01.985Z,25.70
2023-05-17T15:22:30.021Z,25.70
2023-05-17T15:24:58.408Z,25.70
2023-05-17T15:27:27.490Z,25.70
2023-05-17T15:29:55.653Z,25.70
2023-05-17T15:32:23.455Z,25.80
2023-05-17T15:34:52.474Z,25.80
2023-05-17T15:37:20.212Z,25.70
2023-05-17T15:39:48.061Z,25.80
2023-05-17T15:42:15.931Z,25.80
2023-05-17T15:44:45.015Z,25.80
2023-05-17T15:47:12.776Z,25.80
2023-05-17T15:49:41.244Z,25.80
2023-05-17T15:52:09.265Z,25.80
2023-05-17T15:54:36.998Z,25.80
2023-05-17T15:57:05.158Z,25.80
2023-05-17T15:59:33.151Z,25.80
2023-05-17T16:02:02.270Z,25.90
2023-05-17T16:04:30.326Z,25.90
2023-05-17T16:06:58.125Z,25.90
2023-05-17T16:09:26.375Z,25.90
2023-05-17T16:11:54.187Z,25.90
2023-05-17T16:14:21.950Z,26.00
2023-05-17T16:16:49.709Z,26.00
2023-05-17T16:19:19.476Z,26.00
2023-05-17T16:21:50.379Z,26.10
2023-05-17T16:24:18.594Z,26.00
2023-05-17T16:26:46.402Z,26.10
2023-05-17T16:29:16.730Z,26.10
2023-05-17T16:31:44.711Z,26.10
2023-05-17T16:34:12.553Z,26.20
2023-05-17T16:36:41.881Z,26.10
2023-05-17T16:39:09.625Z,26.10
2023-05-17T16:41:38.553Z,26.20
2023-05-17T16:44:06.492Z,26.20
2023-05-17T16:46:34.326Z,26.20
2023-05-17T16:49:02.115Z,26.20
2023-05-17T16:51:29.953Z,26.20
2023-05-17T16:53:59.028Z,26.10
2023-05-17T16:56:27.461Z,26.20
2023-05-17T16:58:55.267Z,26.10
2023-05-17T17:01:23.045Z,26.10
2023-05-17T17:03:50.802Z,26.00
2023-05-17T17:06:18.633Z,26.00
2023-05-17T17:08:46.491Z,26.00
2023-05-17T17:11:21.626Z,26.00
2023-05-17T17:13:49.826Z,25.90
2023-05-17T17:16:18.032Z,26.00
2023-05-17T17:18:46.955Z,26.00
2023-05-17T17:21:14.779Z,25.90
2023-05-17T17:23:43.016Z,25.90
2023-05-17T17:26:11.524Z,25.90
2023-05-17T17:28:40.810Z,25.90
2023-05-17T17:31:08.911Z,25.80
2023-05-17T17:33:37.545Z,25.80
2023-05-17T17:36:05.787Z,25.80
2023-05-17T17:38:33.699Z,25.80
2023-05-17T17:41:01.545Z,25.70
2023-05-17T17:43:29.279Z,25.70
2023-05-17T17:45:58.384Z,25.70
2023-05-17T17:48:26.263Z,25.70
2023-05-17T17:50:53.991Z,25.70
2023-05-17T17:53:21.960Z,25.60
2023-05-17T17:55:49.684Z,25.60
2023-05-17T17:58:17.432Z,25.60
2023-05-17T18:00:45.299Z,25.60
2023-05-17T18:03:14.484Z,25.60
2023-05-17T18:05:42.643Z,25.60
2023-05-17T18:08:10.394Z,25.50
2023-05-17T18:10:38.153Z,25.50
2023-05-17T18:13:06.036Z,25.50
2023-05-17T18:15:33.797Z,25.50
2023-05-17T18:18:01.575Z,25.50
2023-05-17T18:20:31.721Z,25.50
2023-05-17T18:22:59.675Z,25.50
2023-05-17T18:25:27.512Z,25.50
2023-05-17T18:27:55.259Z,25.40
2023-05-17T18:30:23.627Z,25.40
2023-05-17T18:32:51.462Z,25.40
2023-05-17T18:35:19.209Z,25.40
2023-05-17T18:37:48.273Z,25.40
2023-05-17T18:40:16.381Z,25.40
2023-05-17T18:42:44.402Z,25.40
2023-05-17T18:45:12.186Z,25.40
2023-05-17T18:47:40.046Z,25.40
2023-05-17T18:50:08.958Z,25.40
2023-05-17T18:52:36.705Z,25.40
2023-05-17T18:55:06.489Z,25.40
2023-05-17T18:57:34.234Z,25.40
2023-05-17T19:00:02.146Z,25.40
2023-05-17T19:02:29.921Z,25.40
2023-05-17T19:04:57.652Z,25.40
2023-05-17T19:07:25.500Z,25.40
2023-05-17T19:09:53.237Z,25.40
2023-05-17T19:12:22.356Z,25.40
2023-05-17T19:14:50.136Z,25.40
2023-05-17T19:17:17.948Z,25.40
2023-05-17T19:19:45.726Z,25.40
2023-05-17T19:22:14.296Z,25.40
2023-05-17T19:24:42.023Z,25.40
2023-05-17T19:27:10.820Z,25.40
2023-05-17T19:29:39.903Z,25.40
2023-05-17T19:32:07.978Z,25.40
2023-05-17T19:34:35.707Z,25.40
2023-05-17T19:37:03.621Z,25.40
2023-05-17T19:39:31.352Z,25.40
2023-05-17T19:41:59.147Z,25.40
2023-05-17T19:44:27.039Z,25.40
2023-05-17T19:46:56.288Z,25.30
2023-05-17T19:49:24.225Z,25.40
2023-05-17T19:51:53.960Z,25.40
2023-05-17T19:54:22.072Z,25.30
2023-05-17T19:56:49.826Z,25.30
2023-05-17T19:59:17.646Z,25.30
2023-05-17T20:01:45.527Z,25.30
2023-05-17T20:04:14.713Z,25.30
2023-05-17T20:06:42.531Z,25.30
2023-05-17T20:09:10.290Z,25.30
2023-05-17T20:11:38.040Z,25.30
2023-05-17T20:14:06.010Z,25.30
2023-05-17T20:16:33.835Z,25.30
2023-05-17T20:19:01.783Z,25.30
2023-05-17T20:21:31.283Z,25.20
2023-05-17T20:24:03.587Z,25.20
2023-05-17T20:26:36.171Z,25.20
2023-05-17T20:29:04.146Z,25.20
2023-05-17T20:31:31.930Z,25.20
2023-05-17T20:33:59.885Z,25.20
2023-05-17T20:36:27.749Z,25.20
2023-05-17T20:38:56.851Z,25.20
2023-05-17T20:41:24.706Z,25.20
2023-05-17T20:43:52.582Z,25.10
2023-05-17T20:46:20.542Z,25.10
2023-05-17T20:48:49.652Z,25.10
2023-05-17T20:51:19.439Z,25.20
2023-05-17T20:53:47.261Z,25.10
2023-05-17T20:56:19.129Z,25.10
2023-05-17T20:58:46.934Z,25.10
2023-05-17T21:01:14.815Z,25.10
2023-05-17T21:03:43.210Z,25.10
2023-05-17T21:06:11.273Z,25.10
2023-05-17T21:08:39.500Z,25.10
2023-05-17T21:11:07.226Z,25.10
2023-05-17T21:13:36.346Z,25.10
2023-05-17T21:16:04.329Z,25.10
2023-05-17T21:18:32.106Z,25.10
2023-05-17T21:21:00.563Z,25.00
2023-05-17T21:23:28.420Z,25.00
2023-05-17T21:25:56.191Z,25.00
2023-05-17T21:28:24.828Z,25.00
2023-05-17T21:30:54.156Z,25.00
2023-05-17T21:33:21.903Z,25.00
2023-05-17T21:35:49.681Z,25.00
2023-05-17T21:38:17.553Z,25.00
2023-05-17T21:40:45.325Z,25.00
2023-05-17T21:43:13.138Z,25.00
2023-05-17T21:45:41.146Z,25.00
2023-05-17T21:48:10.650Z,25.00
2023-05-17T21:50:38.439Z,25.00
2023-05-17T21:53:06.214Z,25.00
2023-05-17T21:55:45.799Z,25.00
2023-05-17T21:58:21.696Z,25.00
2023-05-17T22:00:49.556Z,25.00
2023-05-17T22:03:18.737Z,25.00
2023-05-17T22:05:46.543Z,25.00
2023-05-17T22:08:14.311Z,25.00
2023-05-17T22:10:42.131Z,25.00
2023-05-17T22:13:11.996Z,25.00
2023-05-17T22:15:41.374Z,25.00
2023-05-17T22:18:12.078Z,25.00
2023-05-17T22:20:41.307Z,25.00
2023-05-17T22:23:09.172Z,25.00
2023-05-17T22:25:36.937Z,25.00
2023-05-17T22:28:04.813Z,25.00
2023-05-17T22:30:33.121Z,25.00
2023-05-17T22:33:01.437Z,25.00
2023-05-17T22:35:29.630Z,24.90
2023-05-17T22:37:58.763Z,25.00
2023-05-17T22:40:26.656Z,24.90
2023-05-17T22:42:54.440Z,24.90
2023-05-17T22:45:22.491Z,24.90
2023-05-17T22:47:50.566Z,24.90
2023-05-17T22:50:19.215Z,24.90
2023-05-17T22:52:47.002Z,24.90
2023-05-17T22:55:16.123Z,24.90
2023-05-17T22:57:43.930Z,24.90
2023-05-17T23:00:13.487Z,24.90
2023-05-17T23:02:41.290Z,24.90
2023-05-17T23:05:11.055Z,24.90
2023-05-17T23:07:39.516Z,24.90
2023-05-17T23:10:09.685Z,24.90
2023-05-17T23:12:39.044Z,24.90
2023-05-17T23:15:07.888Z,24.90
2023-05-17T23:17:36.425Z,24.90
2023-05-17T23:20:09.799Z,24.90
2023-05-17T23:22:38.666Z,24.90
2023-05-17T23:25:07.398Z,24.90
2023-05-17T23:27:35.645Z,24.90
2023-05-17T23:30:05.655Z,24.90
2023-05-17T23:32:33.982Z,24.90
2023-05-17T23:35:04.021Z,24.90
2023-05-17T23:37:31.935Z,24.90
2023-05-17T23:40:00.043Z,24.90
2023-05-17T23:42:29.244Z,24.90
2023-05-17T23:44:57.008Z,24.90
2023-05-17T23:47:27.941Z,24.90
2023-05-17T23:49:55.901Z,24.80
2023-05-17T23:52:24.298Z,24.80
2023-05-17T23:54:52.129Z,24.90
2023-05-17T23:57:19.863Z,24.80
2023-05-17T23:59:47.600Z,24.80
